Time;durP1;ratioP1;P1;durP2;ratioP2;P2;SDS_P1;SDS_P2;PMS_P1;PMS_P2;Temp;Humidity;BMP_temperature;BMP_pressure;BME280_temperature;BME280_humidity;BME280_pressure;Samples;Min_cycle;Max_cycle;Signal;HPM_P1;HPM_P2
2023/10/16 00:01:09;;;;;;;5.97;1.27;;;;;;;;;;5076984;28;20437;-79
2023/10/16 00:03:38;;;;;;;6.27;1.40;;;;;;;;;;5072034;28;20503;-80
2023/10/16 00:06:11;;;;;;;3.60;1.10;;;;;;;;;;5076693;28;20454;-78
2023/10/16 00:08:46;;;;;;;4.40;0.87;;;;;;;;;;5074004;28;20551;-80
2023/10/16 00:11:23;;;;;;;6.60;1.80;;;;;;;;;;5072095;28;20453;-80
2023/10/16 00:13:51;;;;;;;4.60;1.00;;;;;;;;;;5077237;28;20432;-79
2023/10/16 00:16:21;;;;;;;7.23;1.47;;;;;;;;;;5076885;28;20445;-78
2023/10/16 00:18:50;;;;;;;4.20;1.33;;;;;;;;;;5074165;28;20468;-81
2023/10/16 00:21:18;;;;;;;8.27;2.33;;;;;;;;;;5075464;28;20520;-81
2023/10/16 00:23:52;;;;;;;5.37;1.30;;;;;;;;;;5075753;28;20488;-79
2023/10/16 00:26:22;;;;;;;5.40;1.00;;;;;;;;;;5075943;28;20438;-78
2023/10/16 00:29:16;;;;;;;7.70;1.57;;;;;;;;;;5069706;28;20444;-78
2023/10/16 00:31:51;;;;;;;6.07;1.10;;;;;;;;;;5074027;28;20460;-79
2023/10/16 00:34:20;;;;;;;4.53;1.37;;;;;;;;;;5072828;28;20448;-78
2023/10/16 00:36:49;;;;;;;3.73;1.30;;;;;;;;;;5073601;28;20458;-80
2023/10/16 00:39:19;;;;;;;8.07;1.70;;;;;;;;;;5071131;28;20489;-81
2023/10/16 00:41:50;;;;;;;6.43;1.20;;;;;;;;;;5065344;28;20487;-79
2023/10/16 00:44:18;;;;;;;8.43;1.20;;;;;;;;;;5065226;28;20531;-80
2023/10/16 00:46:48;;;;;;;4.00;0.90;;;;;;;;;;5067091;28;20453;-79
2023/10/16 00:49:18;;;;;;;6.73;1.67;;;;;;;;;;5063044;28;20464;-79
2023/10/16 00:51:46;;;;;;;4.60;1.43;;;;;;;;;;5070799;28;20488;-80
2023/10/16 00:54:18;;;;;;;7.30;1.90;;;;;;;;;;5073782;28;20484;-79
2023/10/16 00:56:49;;;;;;;6.30;1.53;;;;;;;;;;5076018;28;20434;-78
2023/10/16 00:59:17;;;;;;;6.00;1.23;;;;;;;;;;5075726;28;20790;-80
2023/10/16 01:01:44;;;;;;;5.93;1.50;;;;;;;;;;5073440;28;20461;-79
2023/10/16 01:04:16;;;;;;;10.50;1.57;;;;;;;;;;5073774;28;20553;-81
2023/10/16 01:06:44;;;;;;;4.20;1.57;;;;;;;;;;5076604;28;20445;-81
2023/10/16 01:09:13;;;;;;;7.53;1.70;;;;;;;;;;5075560;28;20496;-78
2023/10/16 01:11:41;;;;;;;5.00;1.60;;;;;;;;;;5071245;28;20865;-79
2023/10/16 01:14:12;;;;;;;10.20;1.20;;;;;;;;;;5075665;28;20462;-78
2023/10/16 01:16:40;;;;;;;8.10;1.27;;;;;;;;;;5075532;28;20478;-80
2023/10/16 01:19:10;;;;;;;8.63;1.17;;;;;;;;;;5076669;28;20446;-80
2023/10/16 01:21:40;;;;;;;9.80;1.27;;;;;;;;;;5073437;28;20463;-80
2023/10/16 01:24:12;;;;;;;4.90;1.50;;;;;;;;;;5073964;28;20515;-78
2023/10/16 01:26:40;;;;;;;3.83;1.00;;;;;;;;;;5065747;28;20473;-79
2023/10/16 01:29:09;;;;;;;3.93;1.13;;;;;;;;;;5071064;28;20453;-81
2023/10/16 01:31:37;;;;;;;4.70;1.30;;;;;;;;;;5068987;28;20464;-79
2023/10/16 01:34:10;;;;;;;4.57;1.20;;;;;;;;;;5065511;28;20453;-80
2023/10/16 01:36:38;;;;;;;4.10;1.27;;;;;;;;;;5065648;28;20461;-79
2023/10/16 01:39:08;;;;;;;4.67;1.20;;;;;;;;;;5064296;28;20481;-79
2023/10/16 01:41:39;;;;;;;5.20;1.03;;;;;;;;;;5067768;28;20473;-80
2023/10/16 01:44:09;;;;;;;6.43;1.40;;;;;;;;;;5067431;28;20908;-80
2023/10/16 01:46:37;;;;;;;6.00;1.30;;;;;;;;;;5070920;28;20457;-79
2023/10/16 01:49:06;;;;;;;4.50;1.10;;;;;;;;;;5070518;28;20462;-79
2023/10/16 01:51:35;;;;;;;3.97;1.00;;;;;;;;;;5075603;28;20441;-79
2023/10/16 01:54:11;;;;;;;5.33;1.33;;;;;;;;;;5073780;28;20449;-80
2023/10/16 01:56:41;;;;;;;4.07;1.00;;;;;;;;;;5074280;28;20445;-80
2023/10/16 01:59:09;;;;;;;9.93;1.40;;;;;;;;;;5072545;28;20489;-80
2023/10/16 02:01:36;;;;;;;6.97;1.47;;;;;;;;;;5074799;28;20477;-80
2023/10/16 02:04:06;;;;;;;6.43;1.20;;;;;;;;;;5073715;28;20497;-80
2023/10/16 02:06:34;;;;;;;4.10;1.30;;;;;;;;;;5074329;28;20467;-79
2023/10/16 02:09:01;;;;;;;11.43;1.40;;;;;;;;;;5073886;28;20433;-77
2023/10/16 02:11:28;;;;;;;4.10;0.90;;;;;;;;;;5074225;28;20436;-80
2023/10/16 02:13:59;;;;;;;6.40;1.10;;;;;;;;;;5074868;28;20453;-78
2023/10/16 02:16:27;;;;;;;6.63;1.40;;;;;;;;;;5077547;28;20457;-80
2023/10/16 02:19:00;;;;;;;4.47;1.50;;;;;;;;;;5076357;28;20457;-80
2023/10/16 02:21:28;;;;;;;4.80;1.20;;;;;;;;;;5074814;28;20461;-79
2023/10/16 02:24:03;;;;;;;4.93;1.03;;;;;;;;;;5069709;28;20488;-78
2023/10/16 02:26:40;;;;;;;4.03;1.13;;;;;;;;;;5071448;28;20880;-80
2023/10/16 02:29:12;;;;;;;5.13;1.23;;;;;;;;;;5068794;28;20461;-80
2023/10/16 02:31:40;;;;;;;4.57;1.10;;;;;;;;;;5073308;28;20457;-80
2023/10/16 02:34:12;;;;;;;3.27;1.00;;;;;;;;;;5072508;28;20461;-80
2023/10/16 02:36:39;;;;;;;4.40;1.63;;;;;;;;;;5073065;28;20465;-80
2023/10/16 02:39:08;;;;;;;4.70;1.20;;;;;;;;;;5071965;28;20559;-80
2023/10/16 02:41:35;;;;;;;5.60;1.10;;;;;;;;;;5071914;28;20779;-80
2023/10/16 02:44:03;;;;;;;4.10;1.27;;;;;;;;;;5068778;28;20499;-81
2023/10/16 02:46:32;;;;;;;3.70;1.00;;;;;;;;;;5068873;28;20480;-80
2023/10/16 02:49:00;;;;;;;3.20;1.20;;;;;;;;;;5071690;28;20837;-81
2023/10/16 02:51:27;;;;;;;16.93;2.13;;;;;;;;;;5071764;28;20455;-81
2023/10/16 02:53:54;;;;;;;4.93;1.33;;;;;;;;;;5066940;28;20459;-80
2023/10/16 02:56:25;;;;;;;6.07;1.30;;;;;;;;;;5065025;28;20474;-80
2023/10/16 02:58:55;;;;;;;5.97;1.93;;;;;;;;;;5066772;28;20453;-80
2023/10/16 03:01:22;;;;;;;6.63;1.33;;;;;;;;;;5068554;28;20453;-79
2023/10/16 03:03:52;;;;;;;7.80;1.33;;;;;;;;;;5070452;28;20508;-79
2023/10/16 03:06:20;;;;;;;9.10;1.27;;;;;;;;;;5061107;28;20940;-79
2023/10/16 03:08:49;;;;;;;6.07;1.17;;;;;;;;;;5051027;28;20754;-79
2023/10/16 03:11:17;;;;;;;5.20;1.40;;;;;;;;;;5048243;28;20447;-80
2023/10/16 03:13:47;;;;;;;5.13;1.60;;;;;;;;;;5049830;28;20478;-80
2023/10/16 03:16:17;;;;;;;5.37;1.30;;;;;;;;;;5044750;28;20458;-79
2023/10/16 03:18:48;;;;;;;6.13;2.37;;;;;;;;;;5046718;28;20474;-79
2023/10/16 03:21:31;;;;;;;5.20;1.30;;;;;;;;;;5045561;28;20898;-79
2023/10/16 03:23:59;;;;;;;6.80;1.50;;;;;;;;;;5046703;28;20567;-80
2023/10/16 03:26:28;;;;;;;5.03;1.80;;;;;;;;;;5046517;28;20524;-79
2023/10/16 03:28:56;;;;;;;5.13;1.60;;;;;;;;;;5046522;28;20458;-80
2023/10/16 03:31:23;;;;;;;4.70;1.60;;;;;;;;;;5046871;28;20481;-80
2023/10/16 03:33:51;;;;;;;6.00;2.43;;;;;;;;;;5043373;28;20466;-79
2023/10/16 03:36:21;;;;;;;5.60;1.83;;;;;;;;;;5043836;28;20526;-80
2023/10/16 03:38:50;;;;;;;8.30;1.93;;;;;;;;;;5043919;28;20482;-80
2023/10/16 03:41:27;;;;;;;5.93;1.80;;;;;;;;;;5045864;28;20493;-79
2023/10/16 03:43:56;;;;;;;7.40;2.27;;;;;;;;;;5044038;28;20561;-79
2023/10/16 03:46:24;;;;;;;6.17;1.80;;;;;;;;;;5048751;28;20699;-81
2023/10/16 03:48:51;;;;;;;6.80;2.17;;;;;;;;;;5052794;28;20472;-79
2023/10/16 03:51:21;;;;;;;5.10;2.13;;;;;;;;;;5048919;28;20468;-80
2023/10/16 03:53:52;;;;;;;6.23;1.60;;;;;;;;;;5045079;28;20619;-79
2023/10/16 03:56:19;;;;;;;4.97;2.00;;;;;;;;;;5047593;28;20451;-80
2023/10/16 03:58:47;;;;;;;5.90;2.07;;;;;;;;;;5047753;28;20455;-79
2023/10/16 04:01:21;;;;;;;7.77;3.10;;;;;;;;;;5048072;28;20552;-80
2023/10/16 04:03:50;;;;;;;5.13;2.60;;;;;;;;;;5049938;28;20485;-80
2023/10/16 04:06:19;;;;;;;5.90;1.90;;;;;;;;;;5048038;28;20447;-79
2023/10/16 04:08:48;;;;;;;10.67;3.90;;;;;;;;;;5049776;28;20497;-81
2023/10/16 04:11:16;;;;;;;8.47;2.40;;;;;;;;;;5050252;28;20455;-80
2023/10/16 04:13:47;;;;;;;7.87;2.47;;;;;;;;;;5049770;28;20478;-80
2023/10/16 04:16:30;;;;;;;5.90;2.10;;;;;;;;;;5050790;28;20796;-79
2023/10/16 04:19:08;;;;;;;7.00;2.40;;;;;;;;;;5050473;28;20477;-81
2023/10/16 04:21:40;;;;;;;6.77;2.10;;;;;;;;;;5048331;28;20811;-79
2023/10/16 04:24:30;;;;;;;8.40;3.03;;;;;;;;;;5045305;28;20545;-79
2023/10/16 04:27:29;;;;;;;7.40;1.97;;;;;;;;;;5051000;28;20450;-80
2023/10/16 04:30:27;;;;;;;4.97;1.60;;;;;;;;;;5050358;28;20500;-81
2023/10/16 04:32:40;;;;;;;5.50;1.67;;;;;;;;;;5046913;28;20451;-79
2023/10/16 04:37:54;;;;;;;5.17;1.67;;;;;;;;;;5048003;28;20462;-78
2023/10/16 04:43:19;;;;;;;8.30;1.70;;;;;;;;;;5031871;28;20435;-80
2023/10/16 04:46:16;;;;;;;7.60;1.97;;;;;;;;;;5051917;28;20446;-80
2023/10/16 04:48:50;;;;;;;5.30;1.93;;;;;;;;;;5044386;28;20450;-80
2023/10/16 04:51:22;;;;;;;8.57;2.57;;;;;;;;;;5048248;28;20464;-80
2023/10/16 04:53:59;;;;;;;13.50;2.33;;;;;;;;;;5048632;28;20454;-80
2023/10/16 04:59:58;;;;;;;7.93;2.20;;;;;;;;;;5152449;27;20590;-78
2023/10/16 05:02:40;;;;;;;8.83;2.17;;;;;;;;;;5121730;28;20466;-78
2023/10/16 05:08:06;;;;;;;4.40;1.57;;;;;;;;;;5118759;28;20498;-78
2023/10/16 05:11:23;;;;;;;4.17;2.03;;;;;;;;;;5117285;27;20992;-78
2023/10/16 05:13:55;;;;;;;6.03;2.23;;;;;;;;;;5114728;28;20453;-77
2023/10/16 05:16:35;;;;;;;6.20;1.97;;;;;;;;;;5114838;28;20498;-78
2023/10/16 05:19:30;;;;;;;12.00;1.73;;;;;;;;;;5114805;28;20474;-77
2023/10/16 06:14:09;;;;;;;7.10;1.37;;;;;;;;;;5115634;28;20490;-78
2023/10/16 06:15:20;;;;;;;9.20;3.63;;;;;;;;;;5035395;28;20431;-80
2023/10/16 06:17:51;;;;;;;6.53;2.70;;;;;;;;;;5030532;28;20510;-81
2023/10/16 06:20:21;;;;;;;11.10;2.87;;;;;;;;;;5061882;28;20471;-79
2023/10/16 06:22:51;;;;;;;10.87;3.07;;;;;;;;;;5084743;28;20540;-80
2023/10/16 06:25:28;;;;;;;7.40;2.77;;;;;;;;;;5091719;28;20460;-80
2023/10/16 06:27:56;;;;;;;6.63;2.50;;;;;;;;;;5089764;28;20524;-79
2023/10/16 06:30:23;;;;;;;5.57;2.83;;;;;;;;;;5091065;28;20413;-79
2023/10/16 06:32:54;;;;;;;7.17;2.87;;;;;;;;;;5080952;28;20461;-80
2023/10/16 06:35:25;;;;;;;6.70;2.60;;;;;;;;;;5083353;28;20463;-79
2023/10/16 06:37:55;;;;;;;4.90;2.37;;;;;;;;;;5089356;28;20657;-80
2023/10/16 06:40:25;;;;;;;8.07;3.47;;;;;;;;;;5084408;28;20445;-80
2023/10/16 06:43:09;;;;;;;7.03;2.93;;;;;;;;;;5089243;28;20780;-79
2023/10/16 06:45:41;;;;;;;8.80;3.80;;;;;;;;;;5089676;28;20480;-81
2023/10/16 06:48:14;;;;;;;7.17;2.77;;;;;;;;;;5090075;28;20528;-80
2023/10/16 06:50:45;;;;;;;5.97;2.83;;;;;;;;;;5087994;28;20467;-80
2023/10/16 06:53:25;;;;;;;5.30;3.07;;;;;;;;;;5083211;28;20451;-79
2023/10/16 06:55:53;;;;;;;6.60;3.23;;;;;;;;;;5090128;28;20455;-81
2023/10/16 06:58:21;;;;;;;8.43;3.67;;;;;;;;;;5084547;28;20523;-79
2023/10/16 07:00:49;;;;;;;8.30;3.27;;;;;;;;;;5084606;28;20450;-80
2023/10/16 07:03:17;;;;;;;6.73;3.17;;;;;;;;;;5087197;28;20460;-81
2023/10/16 07:05:45;;;;;;;5.60;3.00;;;;;;;;;;5091883;28;20445;-80
2023/10/16 07:08:16;;;;;;;9.63;3.20;;;;;;;;;;5084669;28;20449;-79
2023/10/16 07:10:49;;;;;;;6.83;2.30;;;;;;;;;;5081803;28;20468;-80
2023/10/16 07:13:26;;;;;;;9.20;4.33;;;;;;;;;;5082508;28;20927;-81
2023/10/16 07:16:01;;;;;;;7.03;2.90;;;;;;;;;;5086041;28;20482;-80
2023/10/16 07:18:29;;;;;;;6.37;3.60;;;;;;;;;;5080590;28;20468;-80
2023/10/16 07:21:07;;;;;;;5.40;2.80;;;;;;;;;;5068237;28;20475;-81
2023/10/16 07:23:45;;;;;;;5.53;2.97;;;;;;;;;;5082691;28;20458;-77
2023/10/16 07:26:18;;;;;;;6.67;3.10;;;;;;;;;;5087731;28;20543;-80
2023/10/16 07:28:51;;;;;;;7.57;2.93;;;;;;;;;;5082522;28;20433;-80
2023/10/16 07:31:26;;;;;;;4.63;2.50;;;;;;;;;;5084829;28;20480;-77
2023/10/16 07:34:33;;;;;;;9.60;2.97;;;;;;;;;;5083485;28;20475;-80
2023/10/16 07:37:13;;;;;;;8.97;3.30;;;;;;;;;;5088632;28;20452;-80
2023/10/16 07:39:43;;;;;;;5.83;3.30;;;;;;;;;;5086291;28;20496;-81
2023/10/16 07:42:12;;;;;;;5.70;2.90;;;;;;;;;;5076158;28;20516;-82
2023/10/16 07:44:41;;;;;;;14.20;4.93;;;;;;;;;;5061269;28;20460;-80
2023/10/16 07:47:10;;;;;;;11.00;4.07;;;;;;;;;;5048861;28;20462;-79
2023/10/16 07:49:40;;;;;;;8.97;5.10;;;;;;;;;;5062752;28;20440;-79
2023/10/16 07:52:07;;;;;;;7.20;3.67;;;;;;;;;;5062413;28;20461;-81
2023/10/16 07:54:36;;;;;;;7.20;3.10;;;;;;;;;;5073732;28;20463;-78
2023/10/16 07:57:04;;;;;;;7.50;2.67;;;;;;;;;;5055371;28;20430;-79
2023/10/16 07:59:36;;;;;;;8.13;2.43;;;;;;;;;;5051255;28;20500;-82
2023/10/16 08:02:08;;;;;;;5.90;2.77;;;;;;;;;;5044440;28;20458;-80
2023/10/16 08:04:36;;;;;;;5.33;2.60;;;;;;;;;;5047131;28;20768;-81
2023/10/16 08:07:16;;;;;;;5.40;2.80;;;;;;;;;;5047449;28;20443;-81
2023/10/16 08:09:49;;;;;;;4.20;2.03;;;;;;;;;;5044224;28;20450;-81
2023/10/16 08:12:34;;;;;;;4.50;2.47;;;;;;;;;;5046442;28;20454;-81
2023/10/16 08:15:14;;;;;;;13.20;3.33;;;;;;;;;;5046055;28;20451;-81
2023/10/16 08:17:43;;;;;;;5.17;2.47;;;;;;;;;;5047771;28;20598;-83
2023/10/16 08:20:18;;;;;;;4.60;2.20;;;;;;;;;;5043920;28;20462;-80
2023/10/16 08:22:50;;;;;;;6.03;2.17;;;;;;;;;;5044620;28;20632;-80
2023/10/16 08:30:51;;;;;;;4.90;2.37;;;;;;;;;;5041579;28;20488;-81
2023/10/16 08:33:19;;;;;;;4.40;1.67;;;;;;;;;;5043913;28;20530;-81
2023/10/16 08:35:48;;;;;;;8.30;1.90;;;;;;;;;;5061650;28;20462;-79
2023/10/16 08:38:21;;;;;;;5.83;2.00;;;;;;;;;;5062183;28;20518;-80
2023/10/16 08:40:57;;;;;;;4.43;1.90;;;;;;;;;;5077960;22;20512;-81
2023/10/16 08:43:39;;;;;;;4.37;1.90;;;;;;;;;;5058885;28;20457;-80
2023/10/16 08:46:18;;;;;;;5.10;2.20;;;;;;;;;;5066780;28;20508;-81
2023/10/16 08:48:48;;;;;;;6.53;1.50;;;;;;;;;;5067566;28;20457;-80
2023/10/16 08:51:17;;;;;;;4.70;1.80;;;;;;;;;;5067925;28;20453;-81
2023/10/16 08:53:44;;;;;;;4.90;2.07;;;;;;;;;;5069815;28;20429;-80
2023/10/16 08:56:17;;;;;;;4.40;1.80;;;;;;;;;;5072814;28;20725;-79
2023/10/16 08:58:49;;;;;;;4.60;2.13;;;;;;;;;;5092064;28;20488;-79
2023/10/16 09:01:20;;;;;;;4.20;1.67;;;;;;;;;;5088429;28;20456;-79
2023/10/16 09:03:50;;;;;;;4.93;2.00;;;;;;;;;;5070617;28;20469;-78
2023/10/16 09:06:22;;;;;;;5.23;2.37;;;;;;;;;;5071534;28;20510;-79
2023/10/16 09:08:50;;;;;;;5.63;2.23;;;;;;;;;;5066453;28;20501;-80
2023/10/16 09:11:18;;;;;;;4.00;1.83;;;;;;;;;;5062802;28;20938;-81
2023/10/16 09:13:50;;;;;;;6.07;1.80;;;;;;;;;;5053809;28;20879;-80
2023/10/16 09:16:44;;;;;;;6.33;1.90;;;;;;;;;;5056658;28;20453;-81
2023/10/16 09:19:13;;;;;;;4.97;1.40;;;;;;;;;;5061689;28;20528;-80
2023/10/16 09:21:43;;;;;;;3.13;1.07;;;;;;;;;;5060661;28;20465;-82
2023/10/16 09:24:13;;;;;;;4.83;1.80;;;;;;;;;;5062585;28;20434;-80
2023/10/16 09:26:46;;;;;;;5.23;1.90;;;;;;;;;;5064835;28;20449;-80
2023/10/16 09:29:26;;;;;;;3.50;1.20;;;;;;;;;;5067882;28;20487;-78
2023/10/16 09:31:57;;;;;;;5.23;1.40;;;;;;;;;;5067048;28;20460;-80
2023/10/16 09:34:27;;;;;;;4.97;1.30;;;;;;;;;;5063743;28;20692;-80
2023/10/16 09:39:37;;;;;;;5.47;1.40;;;;;;;;;;5057874;28;20499;-79
2023/10/16 09:42:11;;;;;;;3.80;1.33;;;;;;;;;;5066673;28;20480;-80
2023/10/16 09:44:44;;;;;;;3.90;1.50;;;;;;;;;;5069828;28;20533;-81
2023/10/16 09:47:30;;;;;;;5.63;1.20;;;;;;;;;;5072045;28;20520;-80
2023/10/16 09:50:19;;;;;;;4.93;1.63;;;;;;;;;;5073146;28;20469;-77
2023/10/16 09:52:51;;;;;;;3.40;1.30;;;;;;;;;;5052541;28;20484;-81
2023/10/16 09:55:22;;;;;;;4.10;1.23;;;;;;;;;;5057059;28;20453;-82
2023/10/16 09:57:54;;;;;;;4.33;1.40;;;;;;;;;;5063353;28;20449;-81
2023/10/16 10:00:31;;;;;;;2.70;0.90;;;;;;;;;;5056524;28;20551;-79
2023/10/16 10:03:07;;;;;;;6.60;1.60;;;;;;;;;;5060403;28;20524;-79
2023/10/16 12:58:58;;;;;;;4.00;1.20;;;;;;;;;;6039790;22;4816340;-78
2023/10/16 14:12:41;;;;;;;2.97;1.17;;;;;;;;;;6218299;22;20473;-78
2023/10/16 17:30:24;;;;;;;12.90;6.50;;;;;;;;;;6283488;22;20840;-79
2023/10/16 18:04:24;;;;;;;10.73;4.23;;;;;;;;;;6288165;22;20408;-78
2023/10/16 18:12:44;;;;;;;10.43;3.60;;;;;;;;;;6285890;22;20522;-77
2023/10/16 19:06:47;;;;;;;11.30;6.20;;;;;;;;;;6284396;22;20494;-76
2023/10/16 19:09:17;;;;;;;10.80;5.23;;;;;;;;;;6281579;22;20447;-77
2023/10/16 19:59:53;;;;;;;12.63;7.43;;;;;;;;;;6287050;22;20454;-76
2023/10/16 20:02:24;;;;;;;11.23;5.43;;;;;;;;;;6288066;22;20710;-79
2023/10/16 20:07:31;;;;;;;9.20;4.70;;;;;;;;;;6283189;22;20448;-79
2023/10/16 20:10:00;;;;;;;22.47;5.33;;;;;;;;;;6284008;22;20511;-80
2023/10/16 20:12:32;;;;;;;13.43;6.00;;;;;;;;;;6289192;22;20420;-79
2023/10/16 20:18:21;;;;;;;9.80;5.37;;;;;;;;;;6241964;22;20393;-79
2023/10/16 20:21:01;;;;;;;11.80;4.97;;;;;;;;;;6292223;22;21041;-78
2023/10/16 20:24:03;;;;;;;13.93;5.60;;;;;;;;;;6316361;22;20419;-79
2023/10/16 20:26:33;;;;;;;9.33;4.90;;;;;;;;;;6315886;22;20874;-80
2023/10/16 20:29:22;;;;;;;8.33;4.60;;;;;;;;;;6317535;22;20687;-79
2023/10/16 20:31:55;;;;;;;12.30;6.93;;;;;;;;;;6316129;22;20414;-79
2023/10/16 20:37:27;;;;;;;10.30;6.00;;;;;;;;;;6294477;22;20481;-80
2023/10/16 20:39:56;;;;;;;10.40;5.23;;;;;;;;;;6323167;22;20442;-77
2023/10/16 20:47:41;;;;;;;9.33;5.10;;;;;;;;;;6232831;22;20821;-78
2023/10/16 20:50:23;;;;;;;12.00;5.57;;;;;;;;;;6316194;22;20411;-78
2023/10/16 20:53:04;;;;;;;12.07;6.63;;;;;;;;;;6293277;22;20426;-81
2023/10/16 20:58:26;;;;;;;8.60;4.90;;;;;;;;;;6322624;22;20404;-78
2023/10/16 21:00:58;;;;;;;14.83;6.47;;;;;;;;;;6321092;22;20427;-79
2023/10/16 21:03:36;;;;;;;8.53;5.90;;;;;;;;;;6319498;22;20447;-79
2023/10/16 21:06:07;;;;;;;8.37;6.20;;;;;;;;;;6324137;22;20407;-80
2023/10/16 21:08:40;;;;;;;7.90;5.43;;;;;;;;;;6320083;22;20408;-78
2023/10/16 21:14:05;;;;;;;10.77;5.90;;;;;;;;;;6318999;22;20473;-78
2023/10/16 21:16:45;;;;;;;9.10;5.30;;;;;;;;;;6321719;22;20514;-80
2023/10/16 21:19:13;;;;;;;12.03;7.40;;;;;;;;;;6316780;22;20521;-79
2023/10/16 21:21:46;;;;;;;11.70;5.23;;;;;;;;;;6319299;22;20722;-80
2023/10/16 21:24:17;;;;;;;10.17;5.70;;;;;;;;;;6231963;22;20447;-80
2023/10/16 21:26:48;;;;;;;8.97;5.50;;;;;;;;;;6289234;22;20745;-79
2023/10/16 21:29:40;;;;;;;9.07;5.53;;;;;;;;;;6293830;22;20412;-79
2023/10/16 21:32:09;;;;;;;8.10;4.40;;;;;;;;;;6278277;22;21020;-77
2023/10/16 21:34:56;;;;;;;9.67;5.90;;;;;;;;;;6317071;22;20419;-78
2023/10/16 21:37:31;;;;;;;6.23;4.10;;;;;;;;;;6316082;22;20524;-79
2023/10/16 21:39:59;;;;;;;9.80;4.80;;;;;;;;;;6290462;22;20719;-78
2023/10/16 21:50:16;;;;;;;7.33;3.97;;;;;;;;;;6272112;22;20550;-78
2023/10/16 21:52:50;;;;;;;8.33;4.47;;;;;;;;;;6315561;22;20415;-78
2023/10/16 21:55:25;;;;;;;6.63;3.90;;;;;;;;;;6316821;22;20736;-78
2023/10/16 21:57:56;;;;;;;9.20;4.47;;;;;;;;;;6317497;22;20422;-79
2023/10/16 22:03:14;;;;;;;7.43;3.90;;;;;;;;;;6318138;22;20493;-78
2023/10/16 22:05:57;;;;;;;9.20;4.70;;;;;;;;;;6315560;22;20842;-77
2023/10/16 22:08:33;;;;;;;8.27;4.80;;;;;;;;;;6316384;22;20468;-78
2023/10/16 22:11:01;;;;;;;9.87;5.13;;;;;;;;;;6315059;22;20438;-79
2023/10/16 22:16:40;;;;;;;8.30;4.10;;;;;;;;;;6231474;22;20648;-78
2023/10/16 22:19:07;;;;;;;7.23;4.43;;;;;;;;;;6279663;22;20424;-78
2023/10/16 22:21:35;;;;;;;7.93;4.67;;;;;;;;;;6308366;22;21170;-78
2023/10/16 22:24:07;;;;;;;10.60;6.87;;;;;;;;;;6310651;22;20678;-81
2023/10/16 22:26:35;;;;;;;8.80;4.40;;;;;;;;;;6309147;22;20402;-79
2023/10/16 22:29:10;;;;;;;7.73;4.23;;;;;;;;;;6313687;22;20455;-81
2023/10/16 22:31:39;;;;;;;5.33;3.40;;;;;;;;;;6313597;22;20411;-78
2023/10/16 22:34:09;;;;;;;9.40;4.37;;;;;;;;;;6312338;22;20494;-80
2023/10/16 22:36:36;;;;;;;7.50;4.97;;;;;;;;;;6316668;22;20407;-79
2023/10/16 22:39:08;;;;;;;7.33;4.10;;;;;;;;;;6316069;22;20392;-80
2023/10/16 22:41:37;;;;;;;7.83;3.63;;;;;;;;;;6317345;22;20406;-79
2023/10/16 22:44:05;;;;;;;6.43;4.00;;;;;;;;;;6316773;22;20411;-80
2023/10/16 22:46:33;;;;;;;6.30;3.93;;;;;;;;;;6321412;22;20408;-80
2023/10/16 22:49:01;;;;;;;6.87;3.87;;;;;;;;;;6323219;22;20408;-80
2023/10/16 22:51:28;;;;;;;9.13;4.20;;;;;;;;;;6319197;22;20420;-79
2023/10/16 22:53:56;;;;;;;8.07;4.00;;;;;;;;;;6317353;22;20395;-79
2023/10/16 22:56:25;;;;;;;7.07;4.10;;;;;;;;;;6315609;22;20422;-79
2023/10/16 22:58:53;;;;;;;6.80;4.10;;;;;;;;;;6316695;22;20419;-79
2023/10/16 23:01:22;;;;;;;7.30;4.37;;;;;;;;;;6319963;22;20418;-80
2023/10/16 23:03:51;;;;;;;6.40;3.47;;;;;;;;;;6324885;22;20457;-80
2023/10/16 23:06:18;;;;;;;6.77;3.60;;;;;;;;;;6324023;22;20421;-80
2023/10/16 23:08:52;;;;;;;6.37;4.00;;;;;;;;;;6325614;22;20910;-79
2023/10/16 23:11:25;;;;;;;7.90;3.57;;;;;;;;;;6325279;22;20411;-79
2023/10/16 23:14:00;;;;;;;9.13;3.97;;;;;;;;;;6315601;22;20433;-80
2023/10/16 23:16:29;;;;;;;6.17;3.83;;;;;;;;;;6322101;22;20506;-81
2023/10/16 23:18:56;;;;;;;6.50;3.73;;;;;;;;;;6319192;22;20478;-79
2023/10/16 23:21:25;;;;;;;7.13;4.20;;;;;;;;;;6329180;22;20422;-79
2023/10/16 23:23:53;;;;;;;7.53;3.80;;;;;;;;;;6327149;22;20411;-78
2023/10/16 23:26:20;;;;;;;6.20;3.50;;;;;;;;;;6327175;22;20457;-77
2023/10/16 23:28:50;;;;;;;6.57;4.13;;;;;;;;;;6327215;22;20461;-81
2023/10/16 23:31:23;;;;;;;6.20;3.70;;;;;;;;;;6319969;22;20392;-80
2023/10/16 23:33:56;;;;;;;7.47;4.07;;;;;;;;;;6316013;22;20443;-78
2023/10/16 23:36:25;;;;;;;8.60;4.57;;;;;;;;;;6313644;22;20419;-78
2023/10/16 23:38:53;;;;;;;5.90;3.70;;;;;;;;;;6316549;22;20716;-79
2023/10/16 23:41:27;;;;;;;6.57;3.70;;;;;;;;;;6319517;22;20397;-79
2023/10/16 23:44:12;;;;;;;6.77;3.60;;;;;;;;;;6316006;22;20411;-78
2023/10/16 23:46:43;;;;;;;7.27;3.30;;;;;;;;;;6322726;22;20442;-80
2023/10/16 23:49:16;;;;;;;7.63;3.63;;;;;;;;;;6322849;22;20514;-80
2023/10/16 23:51:46;;;;;;;9.03;3.50;;;;;;;;;;6323024;22;20669;-81
2023/10/16 23:54:19;;;;;;;6.00;3.90;;;;;;;;;;6322522;22;20449;-80
2023/10/16 23:56:50;;;;;;;6.00;3.40;;;;;;;;;;6323017;22;20411;-79
2023/10/16 23:59:19;;;;;;;5.10;3.03;;;;;;;;;;6326956;22;20419;-79
